CheckWX is a tool to help pilots better visualize weather data.  It is not intended as a substitute for an official pre-flight weather briefing.

02:59:51 UTC

KBOS TAF
General Edward Lawrence Logan International Airport
Boston, Massachusetts, USA
KBOS 190210Z 1902/2006 11006KT 4SM BR VCSH OVC008 FM190900 08006KT 2SM BR OVC004 FM191200 10006KT 5SM BR OVC008 FM191300 11008KT P6SM OVC015 FM191900 11010KT P6SM BKN020 FM192300 12010KT 2SM BR BKN008 FM200000 13008KT P6SM BKN050

Jun-19@
02:00 UTC

Jun-19 @ 02:00 UTC

Jun-19@
09:00 UTC

Jun-19 @ 09:00 UTC

KBOS 190210Z 1902/2006 11006KT 4SM BR VCSH OVC008
Wind
  • 110° at 6 KTS
Conditions
Mist
Cloud Levels
  • Overcast at 800' AGL

Jun-19@
09:00 UTC

Jun-19 @ 09:00 UTC

Jun-19@
12:00 UTC

Jun-19 @ 12:00 UTC

FM190900 08006KT 2SM BR OVC004

From

From Standard forecast or significant change

Wind
  • 080° at 6 KTS
Conditions
Mist
Cloud Levels
  • Overcast at 400' AGL

Jun-19@
12:00 UTC

Jun-19 @ 12:00 UTC

Jun-19@
13:00 UTC

Jun-19 @ 13:00 UTC

FM191200 10006KT 5SM BR OVC008

From

From Standard forecast or significant change

Wind
  • 100° at 6 KTS
Conditions
Mist
Cloud Levels
  • Overcast at 800' AGL

Jun-19@
13:00 UTC

Jun-19 @ 13:00 UTC

Jun-19@
19:00 UTC

Jun-19 @ 19:00 UTC

FM191300 11008KT P6SM OVC015

From

From Standard forecast or significant change

Wind
  • 110° at 8 KTS
Cloud Levels
  • Overcast at 1,500' AGL

Jun-19@
19:00 UTC

Jun-19 @ 19:00 UTC

Jun-19@
23:00 UTC

Jun-19 @ 23:00 UTC

FM191900 11010KT P6SM BKN020

From

From Standard forecast or significant change

Wind
  • 110° at 10 KTS
Cloud Levels
  • Broken at 2,000' AGL

Jun-19@
23:00 UTC

Jun-19 @ 23:00 UTC

Jun-20@
00:00 UTC

Jun-20 @ 00:00 UTC

FM192300 12010KT 2SM BR BKN008

From

From Standard forecast or significant change

Wind
  • 120° at 10 KTS
Conditions
Mist
Cloud Levels
  • Broken at 800' AGL

Jun-20@
00:00 UTC

Jun-20 @ 00:00 UTC

Jun-20@
06:00 UTC

Jun-20 @ 06:00 UTC

FM200000 13008KT P6SM BKN050

From

From Standard forecast or significant change

Wind
  • 130° at 8 KTS
Cloud Levels
  • Broken at 5,000' AGL